sensor_id;sensor_type;location;lat;lon;timestamp;pressure;altitude;pressure_sealevel;temperature;humidity
14242;BME280;7205;50.864;12.766;2023-03-26T00:00:21;96635.41;;;8.86;77.73
14242;BME280;7205;50.864;12.766;2023-03-26T00:02:49;96641.69;;;8.85;77.67
14242;BME280;7205;50.864;12.766;2023-03-26T00:05:16;96648.13;;;8.82;77.49
14242;BME280;7205;50.864;12.766;2023-03-26T00:07:43;96653.41;;;8.82;78.19
14242;BME280;7205;50.864;12.766;2023-03-26T00:10:10;96653.25;;;8.84;77.72
14242;BME280;7205;50.864;12.766;2023-03-26T00:12:37;96644.34;;;8.85;77.86
14242;BME280;7205;50.864;12.766;2023-03-26T00:15:04;96650.41;;;8.85;77.62
14242;BME280;7205;50.864;12.766;2023-03-26T00:17:34;96648.56;;;8.86;77.99
14242;BME280;7205;50.864;12.766;2023-03-26T00:20:04;96647.59;;;8.87;78.12
14242;BME280;7205;50.864;12.766;2023-03-26T00:22:33;96652.66;;;8.88;78.45
14242;BME280;7205;50.864;12.766;2023-03-26T00:25:00;96653.50;;;8.89;78.13
14242;BME280;7205;50.864;12.766;2023-03-26T00:27:26;96656.72;;;8.91;78.50
14242;BME280;7205;50.864;12.766;2023-03-26T00:29:53;96645.03;;;8.94;78.21
14242;BME280;7205;50.864;12.766;2023-03-26T00:32:21;96650.91;;;8.96;78.79
14242;BME280;7205;50.864;12.766;2023-03-26T00:34:52;96654.16;;;8.98;78.40
14242;BME280;7205;50.864;12.766;2023-03-26T00:37:21;96648.88;;;8.98;78.08
14242;BME280;7205;50.864;12.766;2023-03-26T00:39:51;96652.16;;;9.00;78.19
14242;BME280;7205;50.864;12.766;2023-03-26T00:42:19;96654.00;;;8.99;78.26
14242;BME280;7205;50.864;12.766;2023-03-26T00:44:46;96654.16;;;8.98;78.23
14242;BME280;7205;50.864;12.766;2023-03-26T00:47:15;96656.19;;;8.96;78.54
14242;BME280;7205;50.864;12.766;2023-03-26T00:49:42;96645.84;;;8.94;78.44
14242;BME280;7205;50.864;12.766;2023-03-26T00:52:11;96648.47;;;8.94;79.50
14242;BME280;7205;50.864;12.766;2023-03-26T00:54:40;96635.31;;;8.94;79.41
14242;BME280;7205;50.864;12.766;2023-03-26T00:57:07;96632.69;;;8.94;79.55
14242;BME280;7205;50.864;12.766;2023-03-26T00:59:34;96638.94;;;8.93;79.54
14242;BME280;7205;50.864;12.766;2023-03-26T01:02:02;96647.84;;;8.92;80.19
14242;BME280;7205;50.864;12.766;2023-03-26T01:04:33;96647.03;;;8.92;80.40
14242;BME280;7205;50.864;12.766;2023-03-26T01:07:05;96650.66;;;8.91;80.22
14242;BME280;7205;50.864;12.766;2023-03-26T01:09:37;96651.66;;;8.89;80.38
14242;BME280;7205;50.864;12.766;2023-03-26T01:12:12;96647.59;;;8.87;79.84
14242;BME280;7205;50.864;12.766;2023-03-26T01:14:41;96658.31;;;8.85;80.34
14242;BME280;7205;50.864;12.766;2023-03-26T01:17:08;96646.91;;;8.78;80.47
14242;BME280;7205;50.864;12.766;2023-03-26T01:19:43;96655.44;;;8.80;80.51
14242;BME280;7205;50.864;12.766;2023-03-26T01:22:13;96652.16;;;8.78;80.34
14242;BME280;7205;50.864;12.766;2023-03-26T01:24:42;96651.53;;;8.76;80.16
14242;BME280;7205;50.864;12.766;2023-03-26T01:27:26;96645.44;;;8.76;80.62
14242;BME280;7205;50.864;12.766;2023-03-26T01:29:55;96656.16;;;8.74;80.44
14242;BME280;7205;50.864;12.766;2023-03-26T01:32:40;96658.16;;;8.72;80.32
14242;BME280;7205;50.864;12.766;2023-03-26T01:35:20;96657.00;;;8.75;80.16
14242;BME280;7205;50.864;12.766;2023-03-26T01:37:58;96648.47;;;8.73;80.14
14242;BME280;7205;50.864;12.766;2023-03-26T01:40:41;96648.28;;;8.74;80.52
14242;BME280;7205;50.864;12.766;2023-03-26T01:43:20;96654.16;;;8.76;80.00
14242;BME280;7205;50.864;12.766;2023-03-26T01:45:49;96667.97;;;8.78;80.26
14242;BME280;7205;50.864;12.766;2023-03-26T01:48:17;96664.31;;;8.79;79.85
14242;BME280;7205;50.864;12.766;2023-03-26T01:50:44;96670.41;;;8.80;80.14
14242;BME280;7205;50.864;12.766;2023-03-26T01:53:13;96656.59;;;8.78;80.52
14242;BME280;7205;50.864;12.766;2023-03-26T01:55:48;96663.88;;;8.76;80.63
14242;BME280;7205;50.864;12.766;2023-03-26T01:58:26;96664.25;;;8.73;81.02
14242;BME280;7205;50.864;12.766;2023-03-26T02:01:02;96658.75;;;8.68;80.71
14242;BME280;7205;50.864;12.766;2023-03-26T02:03:36;96675.91;;;8.64;81.40
14242;BME280;7205;50.864;12.766;2023-03-26T02:06:09;96678.28;;;8.59;82.28
14242;BME280;7205;50.864;12.766;2023-03-26T02:08:41;96663.03;;;8.54;82.65
14242;BME280;7205;50.864;12.766;2023-03-26T02:11:13;96664.44;;;8.50;82.81
14242;BME280;7205;50.864;12.766;2023-03-26T02:13:42;96657.72;;;8.48;83.42
14242;BME280;7205;50.864;12.766;2023-03-26T02:16:11;96662.34;;;8.46;84.27
14242;BME280;7205;50.864;12.766;2023-03-26T02:18:39;96658.72;;;8.47;84.77
14242;BME280;7205;50.864;12.766;2023-03-26T02:21:08;96658.72;;;8.47;84.82
14242;BME280;7205;50.864;12.766;2023-03-26T02:23:38;96652.47;;;8.48;84.81
14242;BME280;7205;50.864;12.766;2023-03-26T02:26:06;96656.72;;;8.49;85.31
14242;BME280;7205;50.864;12.766;2023-03-26T02:28:39;96651.47;;;8.49;85.64
14242;BME280;7205;50.864;12.766;2023-03-26T02:31:06;96655.09;;;8.48;85.87
14242;BME280;7205;50.864;12.766;2023-03-26T02:33:34;96643.94;;;8.46;86.28
14242;BME280;7205;50.864;12.766;2023-03-26T02:36:01;96648.22;;;8.47;86.42
14242;BME280;7205;50.864;12.766;2023-03-26T02:38:28;96649.56;;;8.43;86.80
14242;BME280;7205;50.864;12.766;2023-03-26T02:40:58;96649.69;;;8.35;88.13
14242;BME280;7205;50.864;12.766;2023-03-26T02:43:35;96645.97;;;8.44;87.37
14242;BME280;7205;50.864;12.766;2023-03-26T02:46:05;96644.94;;;8.45;87.30
14242;BME280;7205;50.864;12.766;2023-03-26T02:48:46;96642.25;;;8.38;87.52
14242;BME280;7205;50.864;12.766;2023-03-26T02:51:19;96645.31;;;8.42;88.03
14242;BME280;7205;50.864;12.766;2023-03-26T02:54:09;96647.13;;;8.41;88.18
14242;BME280;7205;50.864;12.766;2023-03-26T02:56:48;96650.59;;;8.42;88.19
14242;BME280;7205;50.864;12.766;2023-03-26T02:59:40;96641.50;;;8.44;88.21
14242;BME280;7205;50.864;12.766;2023-03-26T03:02:40;96646.75;;;8.44;88.22
14242;BME280;7205;50.864;12.766;2023-03-26T03:05:17;96635.44;;;8.44;87.97
14242;BME280;7205;50.864;12.766;2023-03-26T03:07:51;96633.78;;;8.43;87.64
14242;BME280;7205;50.864;12.766;2023-03-26T03:10:26;96630.38;;;8.28;88.23
14242;BME280;7205;50.864;12.766;2023-03-26T03:13:04;96627.13;;;8.26;88.18
14242;BME280;7205;50.864;12.766;2023-03-26T03:15:32;96626.53;;;8.24;88.09
14242;BME280;7205;50.864;12.766;2023-03-26T03:18:01;96628.91;;;8.40;87.52
14242;BME280;7205;50.864;12.766;2023-03-26T03:20:30;96636.41;;;8.43;87.28
14242;BME280;7205;50.864;12.766;2023-03-26T03:22:59;96627.34;;;8.45;86.61
14242;BME280;7205;50.864;12.766;2023-03-26T03:25:27;96629.41;;;8.50;86.88
14242;BME280;7205;50.864;12.766;2023-03-26T03:27:54;96622.53;;;8.49;86.52
14242;BME280;7205;50.864;12.766;2023-03-26T03:30:21;96634.75;;;8.56;86.54
14242;BME280;7205;50.864;12.766;2023-03-26T03:33:07;96623.19;;;8.57;85.82
14242;BME280;7205;50.864;12.766;2023-03-26T03:35:34;96628.31;;;8.59;85.58
14242;BME280;7205;50.864;12.766;2023-03-26T03:38:02;96633.56;;;8.59;85.45
14242;BME280;7205;50.864;12.766;2023-03-26T03:40:38;96622.59;;;8.55;85.21
14242;BME280;7205;50.864;12.766;2023-03-26T03:43:05;96625.22;;;8.55;85.71
14242;BME280;7205;50.864;12.766;2023-03-26T03:45:41;96618.72;;;8.51;85.31
14242;BME280;7205;50.864;12.766;2023-03-26T03:48:28;96624.34;;;8.48;85.69
14242;BME280;7205;50.864;12.766;2023-03-26T03:50:55;96617.44;;;8.47;85.84
14242;BME280;7205;50.864;12.766;2023-03-26T03:53:25;96624.53;;;8.47;86.02
14242;BME280;7205;50.864;12.766;2023-03-26T03:55:54;96620.06;;;8.47;86.71
14242;BME280;7205;50.864;12.766;2023-03-26T03:58:25;96620.69;;;8.49;86.30
14242;BME280;7205;50.864;12.766;2023-03-26T04:01:00;96616.06;;;8.51;87.09
14242;BME280;7205;50.864;12.766;2023-03-26T04:03:49;96617.53;;;8.54;87.04
14242;BME280;7205;50.864;12.766;2023-03-26T04:06:21;96618.31;;;8.54;86.63
14242;BME280;7205;50.864;12.766;2023-03-26T04:08:51;96619.97;;;8.55;86.70
14242;BME280;7205;50.864;12.766;2023-03-26T04:11:18;96618.13;;;8.56;86.31
14242;BME280;7205;50.864;12.766;2023-03-26T04:14:08;96611.25;;;8.55;86.70
14242;BME280;7205;50.864;12.766;2023-03-26T04:16:53;96616.50;;;8.55;86.39
14242;BME280;7205;50.864;12.766;2023-03-26T04:19:23;96612.09;;;8.55;86.06
14242;BME280;7205;50.864;12.766;2023-03-26T04:21:52;96617.34;;;8.55;85.83
14242;BME280;7205;50.864;12.766;2023-03-26T04:24:20;96622.78;;;8.54;85.37
14242;BME280;7205;50.864;12.766;2023-03-26T04:27:08;96621.97;;;8.53;85.49
14242;BME280;7205;50.864;12.766;2023-03-26T04:29:40;96616.50;;;8.55;85.89
14242;BME280;7205;50.864;12.766;2023-03-26T04:32:19;96618.97;;;8.56;85.80
14242;BME280;7205;50.864;12.766;2023-03-26T04:34:51;96614.78;;;8.62;85.55
14242;BME280;7205;50.864;12.766;2023-03-26T04:37:25;96614.59;;;8.63;85.83
14242;BME280;7205;50.864;12.766;2023-03-26T04:40:08;96613.38;;;8.66;85.50
14242;BME280;7205;50.864;12.766;2023-03-26T04:42:47;96613.81;;;8.69;85.17
14242;BME280;7205;50.864;12.766;2023-03-26T04:45:23;96610.81;;;8.72;84.99
14242;BME280;7205;50.864;12.766;2023-03-26T04:47:55;96609.63;;;8.75;85.00
14242;BME280;7205;50.864;12.766;2023-03-26T04:50:24;96607.81;;;8.75;85.34
14242;BME280;7205;50.864;12.766;2023-03-26T04:52:53;96603.16;;;8.77;85.38
14242;BME280;7205;50.864;12.766;2023-03-26T04:55:26;96605.63;;;8.79;84.81
14242;BME280;7205;50.864;12.766;2023-03-26T04:58:04;96608.06;;;8.80;84.51
14242;BME280;7205;50.864;12.766;2023-03-26T05:00:51;96619.56;;;8.79;84.90
14242;BME280;7205;50.864;12.766;2023-03-26T05:03:18;96615.13;;;8.80;84.70
14242;BME280;7205;50.864;12.766;2023-03-26T05:05:47;96623.03;;;8.80;84.52
14242;BME280;7205;50.864;12.766;2023-03-26T05:08:15;96618.59;;;8.80;84.58
14242;BME280;7205;50.864;12.766;2023-03-26T05:10:42;96615.97;;;8.80;85.33
14242;BME280;7205;50.864;12.766;2023-03-26T05:13:13;96619.19;;;8.82;85.11
14242;BME280;7205;50.864;12.766;2023-03-26T05:15:46;96624.44;;;8.82;85.00
14242;BME280;7205;50.864;12.766;2023-03-26T05:18:33;96615.75;;;8.82;84.66
14242;BME280;7205;50.864;12.766;2023-03-26T05:21:06;96614.75;;;8.83;84.92
14242;BME280;7205;50.864;12.766;2023-03-26T05:23:32;96626.28;;;8.82;85.17
14242;BME280;7205;50.864;12.766;2023-03-26T05:26:17;96617.56;;;8.81;84.65
14242;BME280;7205;50.864;12.766;2023-03-26T05:28:43;96621.03;;;8.82;84.49
14242;BME280;7205;50.864;12.766;2023-03-26T05:31:27;96617.38;;;8.83;84.32
14242;BME280;7205;50.864;12.766;2023-03-26T05:33:57;96621.81;;;8.82;84.84
14242;BME280;7205;50.864;12.766;2023-03-26T05:36:27;96626.72;;;8.85;84.39
14242;BME280;7205;50.864;12.766;2023-03-26T05:39:17;96617.63;;;8.88;84.89
14242;BME280;7205;50.864;12.766;2023-03-26T05:42:09;96619.44;;;8.87;84.85
14242;BME280;7205;50.864;12.766;2023-03-26T05:44:51;96617.00;;;8.86;84.81
14242;BME280;7205;50.864;12.766;2023-03-26T05:47:25;96619.44;;;8.87;84.50
14242;BME280;7205;50.864;12.766;2023-03-26T05:49:52;96611.97;;;8.91;85.07
14242;BME280;7205;50.864;12.766;2023-03-26T05:52:20;96611.44;;;8.96;84.75
14242;BME280;7205;50.864;12.766;2023-03-26T05:55:05;96617.28;;;8.98;84.18
14242;BME280;7205;50.864;12.766;2023-03-26T05:57:56;96605.38;;;9.02;83.86
14242;BME280;7205;50.864;12.766;2023-03-26T06:00:42;96600.56;;;9.05;84.63
14242;BME280;7205;50.864;12.766;2023-03-26T06:03:17;96601.00;;;9.09;84.76
14242;BME280;7205;50.864;12.766;2023-03-26T06:06:08;96592.50;;;9.13;84.18
14242;BME280;7205;50.864;12.766;2023-03-26T06:08:48;96588.69;;;9.16;84.09
14242;BME280;7205;50.864;12.766;2023-03-26T06:11:17;96584.84;;;9.18;83.43
14242;BME280;7205;50.864;12.766;2023-03-26T06:13:44;96585.47;;;9.20;83.68
14242;BME280;7205;50.864;12.766;2023-03-26T06:16:13;96585.09;;;9.23;83.52
14242;BME280;7205;50.864;12.766;2023-03-26T06:18:51;96583.06;;;9.25;83.86
14242;BME280;7205;50.864;12.766;2023-03-26T06:21:28;96577.81;;;9.25;82.67
14242;BME280;7205;50.864;12.766;2023-03-26T06:24:03;96586.53;;;9.26;82.59
14242;BME280;7205;50.864;12.766;2023-03-26T06:26:39;96580.63;;;9.24;81.96
14242;BME280;7205;50.864;12.766;2023-03-26T06:29:29;96580.63;;;9.24;82.38
14242;BME280;7205;50.864;12.766;2023-03-26T06:32:16;96577.63;;;9.27;82.35
14242;BME280;7205;50.864;12.766;2023-03-26T06:34:47;96582.28;;;9.31;81.79
14242;BME280;7205;50.864;12.766;2023-03-26T06:37:14;96580.91;;;9.35;81.71
14242;BME280;7205;50.864;12.766;2023-03-26T06:39:44;96575.69;;;9.42;81.89
14242;BME280;7205;50.864;12.766;2023-03-26T06:42:18;96576.94;;;9.46;81.32
14242;BME280;7205;50.864;12.766;2023-03-26T06:45:11;96582.03;;;9.54;81.06
14242;BME280;7205;50.864;12.766;2023-03-26T06:47:56;96584.09;;;9.65;81.11
14242;BME280;7205;50.864;12.766;2023-03-26T06:50:40;96580.94;;;9.76;81.53
14242;BME280;7205;50.864;12.766;2023-03-26T06:53:11;96574.47;;;9.85;80.87
14242;BME280;7205;50.864;12.766;2023-03-26T06:56:06;96581.22;;;9.94;80.74
14242;BME280;7205;50.864;12.766;2023-03-26T06:58:57;96576.59;;;10.02;80.48
14242;BME280;7205;50.864;12.766;2023-03-26T07:01:42;96579.06;;;10.10;79.00
14242;BME280;7205;50.864;12.766;2023-03-26T07:04:27;96568.34;;;10.19;79.07
14242;BME280;7205;50.864;12.766;2023-03-26T07:07:13;96568.97;;;10.27;78.61
14242;BME280;7205;50.864;12.766;2023-03-26T07:10:00;96563.50;;;10.35;77.81
14242;BME280;7205;50.864;12.766;2023-03-26T07:12:47;96556.81;;;10.46;78.35
14242;BME280;7205;50.864;12.766;2023-03-26T07:15:26;96560.09;;;10.54;77.46
14242;BME280;7205;50.864;12.766;2023-03-26T07:18:12;96551.97;;;10.62;76.73
14242;BME280;7205;50.864;12.766;2023-03-26T07:20:40;96558.06;;;10.69;76.29
14242;BME280;7205;50.864;12.766;2023-03-26T07:23:10;96545.91;;;10.75;75.74
14242;BME280;7205;50.864;12.766;2023-03-26T07:25:45;96552.59;;;10.77;74.80
14242;BME280;7205;50.864;12.766;2023-03-26T07:28:36;96551.38;;;10.80;74.64
14242;BME280;7205;50.864;12.766;2023-03-26T07:31:38;96544.25;;;10.80;74.15
14242;BME280;7205;50.864;12.766;2023-03-26T07:34:47;96542.22;;;10.82;73.69
14242;BME280;7205;50.864;12.766;2023-03-26T07:37:42;96538.19;;;10.86;73.63
14242;BME280;7205;50.864;12.766;2023-03-26T07:40:48;96539.59;;;10.89;72.84
14242;BME280;7205;50.864;12.766;2023-03-26T07:43:43;96533.88;;;10.92;71.80
14242;BME280;7205;50.864;12.766;2023-03-26T07:46:28;96528.63;;;10.98;71.70
14242;BME280;7205;50.864;12.766;2023-03-26T07:49:31;96525.78;;;11.00;70.36
14242;BME280;7205;50.864;12.766;2023-03-26T07:52:23;96519.47;;;11.01;69.44
14242;BME280;7205;50.864;12.766;2023-03-26T07:55:05;96504.03;;;11.04;69.89
14242;BME280;7205;50.864;12.766;2023-03-26T07:58:21;96510.13;;;11.11;69.77
14242;BME280;7205;50.864;12.766;2023-03-26T08:01:17;96503.75;;;11.25;69.41
14242;BME280;7205;50.864;12.766;2023-03-26T08:04:08;96501.28;;;11.37;68.43
14242;BME280;7205;50.864;12.766;2023-03-26T08:07:01;96491.94;;;11.41;66.97
14242;BME280;7205;50.864;12.766;2023-03-26T08:10:01;96498.03;;;11.42;66.91
14242;BME280;7205;50.864;12.766;2023-03-26T08:12:51;96497.19;;;11.48;67.33
14242;BME280;7205;50.864;12.766;2023-03-26T08:15:24;96495.97;;;11.57;67.00
14242;BME280;7205;50.864;12.766;2023-03-26T08:18:01;96489.63;;;11.64;66.06
14242;BME280;7205;50.864;12.766;2023-03-26T08:20:35;96492.69;;;11.68;65.66
14242;BME280;7205;50.864;12.766;2023-03-26T08:23:10;96483.09;;;11.73;65.75
14242;BME280;7205;50.864;12.766;2023-03-26T08:25:47;96489.56;;;11.77;64.71
14242;BME280;7205;50.864;12.766;2023-03-26T08:28:26;96484.50;;;11.76;64.19
14242;BME280;7205;50.864;12.766;2023-03-26T08:30:56;96484.09;;;11.79;64.51
14242;BME280;7205;50.864;12.766;2023-03-26T08:33:25;96482.03;;;11.81;64.50
14242;BME280;7205;50.864;12.766;2023-03-26T08:35:52;96486.94;;;11.77;64.25
14242;BME280;7205;50.864;12.766;2023-03-26T08:38:20;96484.28;;;11.77;63.77
14242;BME280;7205;50.864;12.766;2023-03-26T08:50:02;96470.06;;;11.78;63.91
14242;BME280;7205;50.864;12.766;2023-03-26T08:53:00;96470.44;;;11.82;63.42
14242;BME280;7205;50.864;12.766;2023-03-26T08:55:42;96461.47;;;11.83;63.04
14242;BME280;7205;50.864;12.766;2023-03-26T08:58:31;96466.72;;;11.89;62.96
14242;BME280;7205;50.864;12.766;2023-03-26T09:01:36;96467.09;;;11.99;62.67
14242;BME280;7205;50.864;12.766;2023-03-26T09:04:25;96463.34;;;12.13;62.70
14242;BME280;7205;50.864;12.766;2023-03-26T09:07:12;96445.53;;;12.27;61.98
14242;BME280;7205;50.864;12.766;2023-03-26T09:10:04;96458.22;;;12.43;62.01
14242;BME280;7205;50.864;12.766;2023-03-26T09:13:04;96450.34;;;12.61;61.57
14242;BME280;7205;50.864;12.766;2023-03-26T09:22:35;96448.06;;;12.89;57.56
14242;BME280;7205;50.864;12.766;2023-03-26T09:25:25;96447.25;;;12.89;56.19
14242;BME280;7205;50.864;12.766;2023-03-26T09:31:53;96447.84;;;12.91;54.98
14242;BME280;7205;50.864;12.766;2023-03-26T09:34:29;96441.66;;;12.97;54.68
14242;BME280;7205;50.864;12.766;2023-03-26T09:37:12;96437.13;;;13.04;54.79
14242;BME280;7205;50.864;12.766;2023-03-26T09:39:55;96432.28;;;13.19;55.13
14242;BME280;7205;50.864;12.766;2023-03-26T09:42:36;96432.88;;;13.39;55.11
14242;BME280;7205;50.864;12.766;2023-03-26T09:45:41;96421.34;;;13.63;54.31
14242;BME280;7205;50.864;12.766;2023-03-26T09:51:20;96398.97;;;14.00;52.90
14242;BME280;7205;50.864;12.766;2023-03-26T09:54:11;96400.41;;;14.14;52.14
14242;BME280;7205;50.864;12.766;2023-03-26T09:56:56;96393.06;;;14.28;51.85
14242;BME280;7205;50.864;12.766;2023-03-26T09:59:53;96385.00;;;14.34;50.79
14242;BME280;7205;50.864;12.766;2023-03-26T10:02:37;96392.28;;;14.39;50.24
14242;BME280;7205;50.864;12.766;2023-03-26T10:05:21;96378.09;;;14.45;49.54
14242;BME280;7205;50.864;12.766;2023-03-26T10:07:59;96376.09;;;14.52;49.69
14242;BME280;7205;50.864;12.766;2023-03-26T10:10:36;96374.84;;;14.66;49.58
14242;BME280;7205;50.864;12.766;2023-03-26T10:13:16;96377.38;;;14.72;49.31
14242;BME280;7205;50.864;12.766;2023-03-26T10:15:58;96368.16;;;14.75;48.78
14242;BME280;7205;50.864;12.766;2023-03-26T10:18:36;96361.69;;;14.71;48.18
14242;BME280;7205;50.864;12.766;2023-03-26T10:21:20;96365.63;;;14.68;47.55
14242;BME280;7205;50.864;12.766;2023-03-26T10:24:01;96355.78;;;14.57;47.37
14242;BME280;7205;50.864;12.766;2023-03-26T10:26:42;96353.72;;;14.48;47.08
14242;BME280;7205;50.864;12.766;2023-03-26T10:29:25;96354.19;;;14.33;46.97
14242;BME280;7205;50.864;12.766;2023-03-26T10:32:01;96350.81;;;14.26;46.95
14242;BME280;7205;50.864;12.766;2023-03-26T10:34:47;96345.50;;;14.26;47.08
14242;BME280;7205;50.864;12.766;2023-03-26T10:37:20;96344.59;;;14.32;47.19
14242;BME280;7205;50.864;12.766;2023-03-26T10:40:11;96349.44;;;14.35;46.81
14242;BME280;7205;50.864;12.766;2023-03-26T10:43:09;96345.16;;;14.34;46.27
14242;BME280;7205;50.864;12.766;2023-03-26T10:46:14;96344.81;;;14.31;46.51
14242;BME280;7205;50.864;12.766;2023-03-26T10:49:26;96337.66;;;14.43;47.51
14242;BME280;7205;50.864;12.766;2023-03-26T10:51:59;96331.66;;;14.59;47.67
14242;BME280;7205;50.864;12.766;2023-03-26T10:54:35;96330.13;;;14.74;47.82
14242;BME280;7205;50.864;12.766;2023-03-26T10:57:16;96340.28;;;14.89;47.11
14242;BME280;7205;50.864;12.766;2023-03-26T10:59:45;96322.47;;;15.01;47.09
14242;BME280;7205;50.864;12.766;2023-03-26T11:02:25;96328.56;;;15.13;46.50
14242;BME280;7205;50.864;12.766;2023-03-26T11:04:56;96315.13;;;15.20;45.63
14242;BME280;7205;50.864;12.766;2023-03-26T11:07:31;96322.47;;;15.29;46.61
14242;BME280;7205;50.864;12.766;2023-03-26T11:10:05;96310.56;;;15.43;46.50
14242;BME280;7205;50.864;12.766;2023-03-26T11:12:39;96316.56;;;15.50;46.28
14242;BME280;7205;50.864;12.766;2023-03-26T11:15:20;96321.78;;;15.45;44.99
14242;BME280;7205;50.864;12.766;2023-03-26T11:17:59;96311.47;;;15.37;44.55
14242;BME280;7205;50.864;12.766;2023-03-26T11:20:36;96313.00;;;15.33;44.60
14242;BME280;7205;50.864;12.766;2023-03-26T11:23:27;96317.88;;;15.25;44.59
14242;BME280;7205;50.864;12.766;2023-03-26T11:26:05;96311.22;;;15.10;44.60
14242;BME280;7205;50.864;12.766;2023-03-26T11:32:08;96321.69;;;14.77;45.29
14242;BME280;7205;50.864;12.766;2023-03-26T11:34:39;96318.09;;;14.72;45.76
14242;BME280;7205;50.864;12.766;2023-03-26T11:37:14;96323.78;;;14.64;45.66
14242;BME280;7205;50.864;12.766;2023-03-26T11:39:47;96315.13;;;14.57;45.48
14242;BME280;7205;50.864;12.766;2023-03-26T11:42:22;96323.31;;;14.55;45.53
14242;BME280;7205;50.864;12.766;2023-03-26T11:44:54;96317.13;;;14.50;45.22
14242;BME280;7205;50.864;12.766;2023-03-26T11:47:25;96316.78;;;14.46;45.38
14242;BME280;7205;50.864;12.766;2023-03-26T11:49:57;96313.75;;;14.43;45.46
14242;BME280;7205;50.864;12.766;2023-03-26T11:52:26;96310.53;;;14.41;45.78
14242;BME280;7205;50.864;12.766;2023-03-26T11:54:53;96321.84;;;14.48;46.32
14242;BME280;7205;50.864;12.766;2023-03-26T11:57:25;96312.59;;;14.50;45.73
14242;BME280;7205;50.864;12.766;2023-03-26T11:59:56;96316.78;;;14.46;45.20
14242;BME280;7205;50.864;12.766;2023-03-26T12:02:26;96313.19;;;14.41;45.51
14242;BME280;7205;50.864;12.766;2023-03-26T12:05:15;96312.25;;;14.35;45.53
14242;BME280;7205;50.864;12.766;2023-03-26T12:07:49;96315.25;;;14.27;45.64
14242;BME280;7205;50.864;12.766;2023-03-26T12:10:26;96311.88;;;14.20;46.26
14242;BME280;7205;50.864;12.766;2023-03-26T12:12:56;96304.59;;;14.16;46.31
14242;BME280;7205;50.864;12.766;2023-03-26T12:15:24;96315.56;;;14.08;46.73
14242;BME280;7205;50.864;12.766;2023-03-26T12:17:53;96302.88;;;13.98;47.02
14242;BME280;7205;50.864;12.766;2023-03-26T12:20:31;96306.66;;;13.91;47.36
14242;BME280;7205;50.864;12.766;2023-03-26T12:23:00;96305.34;;;13.81;47.94
14242;BME280;7205;50.864;12.766;2023-03-26T12:25:31;96308.34;;;13.73;48.14
14242;BME280;7205;50.864;12.766;2023-03-26T12:27:59;96297.84;;;13.67;48.55
14242;BME280;7205;50.864;12.766;2023-03-26T12:30:29;96311.06;;;13.55;49.56
14242;BME280;7205;50.864;12.766;2023-03-26T12:33:00;96314.09;;;13.29;50.12
14242;BME280;7205;50.864;12.766;2023-03-26T12:35:32;96323.09;;;12.92;51.03
14242;BME280;7205;50.864;12.766;2023-03-26T12:38:21;96327.28;;;12.45;53.10
14242;BME280;7205;50.864;12.766;2023-03-26T12:41:03;96329.47;;;12.06;54.41
14242;BME280;7205;50.864;12.766;2023-03-26T12:43:36;96321.75;;;11.80;56.01
14242;BME280;7205;50.864;12.766;2023-03-26T12:46:19;96331.38;;;11.68;57.75
14242;BME280;7205;50.864;12.766;2023-03-26T12:48:48;96328.75;;;11.61;57.93
14242;BME280;7205;50.864;12.766;2023-03-26T12:51:25;96332.06;;;11.57;59.01
14242;BME280;7205;50.864;12.766;2023-03-26T12:54:09;96331.44;;;11.55;59.51
14242;BME280;7205;50.864;12.766;2023-03-26T12:56:43;96338.94;;;11.58;60.17
14242;BME280;7205;50.864;12.766;2023-03-26T12:59:23;96332.22;;;11.62;61.17
14242;BME280;7205;50.864;12.766;2023-03-26T13:02:02;96333.22;;;11.67;61.30
14242;BME280;7205;50.864;12.766;2023-03-26T13:07:52;96324.50;;;11.60;61.46
14242;BME280;7205;50.864;12.766;2023-03-26T13:10:32;96330.00;;;11.59;62.45
14242;BME280;7205;50.864;12.766;2023-03-26T13:13:13;96325.13;;;11.56;62.52
14242;BME280;7205;50.864;12.766;2023-03-26T13:15:45;96318.22;;;11.55;63.28
14242;BME280;7205;50.864;12.766;2023-03-26T13:18:25;96316.56;;;11.60;63.79
14242;BME280;7205;50.864;12.766;2023-03-26T13:20:57;96315.97;;;11.65;64.64
14242;BME280;7205;50.864;12.766;2023-03-26T13:23:35;96317.72;;;11.71;64.80
14242;BME280;7205;50.864;12.766;2023-03-26T13:26:12;96314.47;;;11.75;65.09
14242;BME280;7205;50.864;12.766;2023-03-26T13:28:47;96306.16;;;11.72;65.19
14242;BME280;7205;50.864;12.766;2023-03-26T13:31:21;96307.00;;;11.66;65.33
14242;BME280;7205;50.864;12.766;2023-03-26T13:33:56;96305.41;;;11.58;65.41
14242;BME280;7205;50.864;12.766;2023-03-26T13:36:32;96302.81;;;11.52;65.34
14242;BME280;7205;50.864;12.766;2023-03-26T13:39:15;96295.94;;;11.44;65.78
14242;BME280;7205;50.864;12.766;2023-03-26T13:41:54;96304.13;;;11.36;65.80
14242;BME280;7205;50.864;12.766;2023-03-26T13:44:32;96291.22;;;11.21;66.14
14242;BME280;7205;50.864;12.766;2023-03-26T13:47:07;96296.34;;;11.10;66.55
14242;BME280;7205;50.864;12.766;2023-03-26T13:49:39;96289.47;;;11.02;66.85
14242;BME280;7205;50.864;12.766;2023-03-26T13:52:10;96283.00;;;10.98;67.77
14242;BME280;7205;50.864;12.766;2023-03-26T13:54:43;96290.94;;;10.98;68.16
14242;BME280;7205;50.864;12.766;2023-03-26T13:57:17;96284.41;;;11.01;69.00
14242;BME280;7205;50.864;12.766;2023-03-26T13:59:52;96276.25;;;11.02;69.10
14242;BME280;7205;50.864;12.766;2023-03-26T14:02:24;96275.44;;;11.02;69.66
14242;BME280;7205;50.864;12.766;2023-03-26T14:04:58;96279.94;;;11.01;70.08
14242;BME280;7205;50.864;12.766;2023-03-26T14:07:32;96277.91;;;10.97;70.48
14242;BME280;7205;50.864;12.766;2023-03-26T14:10:05;96279.16;;;10.94;70.42
14242;BME280;7205;50.864;12.766;2023-03-26T14:12:43;96279.59;;;10.91;70.85
14242;BME280;7205;50.864;12.766;2023-03-26T14:15:21;96282.00;;;10.93;71.60
14242;BME280;7205;50.864;12.766;2023-03-26T14:17:55;96276.91;;;10.98;71.75
14242;BME280;7205;50.864;12.766;2023-03-26T14:20:52;96274.44;;;11.03;72.17
14242;BME280;7205;50.864;12.766;2023-03-26T14:23:38;96273.81;;;11.07;72.18
14242;BME280;7205;50.864;12.766;2023-03-26T14:26:18;96267.88;;;11.12;71.66